Bonassola — IWEE — position and weather

sailwx.info

Track history (hours):
 
Tides and Currents Weather Stations Pressure Air Temp Water Temp Dewpoint Dewpoint Depression Visibility Wind Speed Wind Dir Waves Ship Positions

Bonassola

Last reported at 2014-Sep-19 06:06 UTC. Time now 2014-Sep-23 18:29 UTC.
Position N 44°25' E 008°55'.

Length 60 m; draft 4 m.

Type: Pollution control. MMSI: 247159000.

Date/timePositionNaut miles runAvg speedWind from/ knotsBaromVisibWave heightAir tempDewpointWater temp
2014-Sep-19 06:06N 44°25' E 008°55'0 0.0
2014-Sep-19 05:33N 44°25' E 008°55'0 0.0
2014-Sep-18 15:04N 44°25' E 008°55'0 0.0
2014-Sep-18 14:33N 44°25' E 008°55'0 0.0
2014-Sep-18 13:33N 44°25' E 008°55'0 0.0
2014-Sep-18 12:33N 44°25' E 008°55'0 0.0
2014-Sep-18 11:33N 44°25' E 008°55'0 0.0
2014-Sep-18 10:33N 44°25' E 008°55'0 0.0
2014-Sep-18 09:33N 44°25' E 008°55'2 2.3
2014-Sep-18 08:33N 44°23' E 008°57'9 8.8
2014-Sep-18 07:33N 44°16' E 009°05'8 8.1
2014-Sep-18 06:33N 44°09' E 009°11'8 8.1
2014-Sep-18 05:33N 44°03' E 009°19'8 8.2
2014-Sep-18 04:33N 43°57' E 009°26'9 8.7
2014-Sep-18 03:33N 43°51' E 009°34'9 9.0
2014-Sep-18 02:33N 43°44' E 009°42'9 9.0
2014-Sep-18 01:33N 43°37' E 009°50'9 8.7
2014-Sep-18 00:33N 43°30' E 009°57'9 8.7
2014-Sep-17 23:33N 43°22' E 010°04'8 8.5
2014-Sep-17 22:33N 43°15' E 010°08'9 8.5
2014-Sep-17 21:33N 43°07' E 010°12'9 8.4
2014-Sep-17 20:28N 42°58' E 010°17'8 8.6
2014-Sep-17 19:33N 42°51' E 010°20'2 0.4
2014-Sep-17 14:33N 42°49' E 010°20'3 0.9
2014-Sep-17 11:26N 42°51' E 010°17'6 4.9
2014-Sep-17 10:15N 42°52' E 010°09'2 1.5
2014-Sep-17 09:10N 42°53' E 010°08'3 5.3
2014-Sep-17 08:32N 42°55' E 010°12'8 2.6
2014-Sep-17 05:25N 42°49' E 010°20'0 0.0
2014-Sep-17 04:28N 42°49' E 010°20'0 0.0
2014-Sep-17 03:07N 42°49' E 010°20'0 0.0
2014-Sep-17 01:33N 42°49' E 010°20'0 0.0
2014-Sep-17 00:32N 42°49' E 010°20'0 0.0
2014-Sep-16 12:06N 42°49' E 010°20'1 1.3
2014-Sep-16 11:33N 42°49' E 010°20'21 6.3
2014-Sep-16 08:15N 43°08' E 010°11'5 6.8
2014-Sep-16 07:33N 43°13' E 010°08'7 7.2
2014-Sep-16 06:33N 43°19' E 010°05'8 7.8
2014-Sep-16 05:33N 43°27' E 010°02'8 7.7
2014-Sep-16 04:33N 43°33' E 009°56'8 8.3
2014-Sep-16 03:33N 43°39' E 009°48'8 8.4
2014-Sep-16 02:33N 43°45' E 009°40'8 8.0
2014-Sep-16 01:33N 43°51' E 009°33'8 7.7
2014-Sep-16 00:33N 43°57' E 009°26'8 7.8
2014-Sep-15 23:33N 44°03' E 009°18'8 7.9
2014-Sep-15 22:33N 44°09' E 009°11'8 8.1
2014-Sep-15 21:33N 44°15' E 009°04'8 7.8
2014-Sep-15 20:33N 44°21' E 008°57'4 3.7
2014-Sep-15 19:33N 44°25' E 008°55'0 0.0
2014-Sep-15 18:33N 44°25' E 008°55'0 0.0
2014-Sep-15 17:33N 44°25' E 008°55'0 0.0
2014-Sep-15 16:33N 44°25' E 008°55'0 0.0
2014-Sep-15 15:32N 44°25' E 008°55'0 0.0
2014-Sep-15 14:33N 44°25' E 008°55'0 0.0
2014-Sep-15 13:33N 44°25' E 008°55'0 0.0
2014-Sep-15 12:34N 44°25' E 008°55'0 0.0
2014-Sep-15 11:33N 44°25' E 008°55'0 0.0
2014-Sep-15 10:33N 44°25' E 008°55'0 0.0
2014-Sep-15 09:32N 44°25' E 008°55'0 0.0
2014-Sep-15 08:34N 44°25' E 008°55'0 0.0
2014-Sep-15 07:34N 44°25' E 008°55'0 0.0
2014-Sep-15 06:33N 44°25' E 008°55'0 0.0
2014-Sep-15 05:31N 44°25' E 008°55'0 0.0
2014-Sep-15 04:34N 44°25' E 008°55'0 0.0
2014-Sep-15 03:34N 44°25' E 008°55'0 0.0
2014-Sep-15 02:34N 44°25' E 008°55'0 0.0
2014-Sep-15 01:33N 44°25' E 008°55'0 0.0
2014-Sep-15 00:33N 44°25' E 008°55'0 0.0
2014-Sep-14 23:34N 44°25' E 008°55'0 0.0
2014-Sep-14 22:32N 44°25' E 008°55'0 0.0
2014-Sep-14 21:33N 44°25' E 008°55'0 0.0
2014-Sep-14 20:33N 44°25' E 008°55'0 0.0
2014-Sep-14 19:33N 44°25' E 008°55'0 0.0
2014-Sep-14 18:34N 44°25' E 008°55'0 0.0
2014-Sep-14 17:34N 44°25' E 008°55'0 0.0
2014-Sep-14 16:33N 44°25' E 008°55'0 0.0
2014-Sep-14 15:33N 44°25' E 008°55'0 0.0
2014-Sep-14 14:33N 44°25' E 008°55'0 0.0
2014-Sep-14 13:34N 44°25' E 008°55'0 0.0
2014-Sep-14 12:33N 44°25' E 008°55'0 0.0
2014-Sep-14 11:33N 44°25' E 008°55'0 0.0
2014-Sep-14 10:34N 44°25' E 008°55'0 0.0
2014-Sep-14 09:34N 44°25' E 008°55'0 0.0
2014-Sep-14 08:33N 44°25' E 008°55'0 0.0
2014-Sep-14 07:33N 44°25' E 008°55'0 0.0
2014-Sep-14 06:34N 44°25' E 008°55'0 0.0
2014-Sep-14 05:34N 44°25' E 008°55'0 0.0
2014-Sep-14 04:33N 44°25' E 008°55'0 0.0
2014-Sep-14 03:33N 44°25' E 008°55'0 0.0
2014-Sep-14 02:33N 44°25' E 008°55'0 0.0
2014-Sep-14 01:33N 44°25' E 008°55'0 0.0
2014-Sep-13 21:34N 44°25' E 008°55'0 0.0
2014-Sep-13 20:34N 44°25' E 008°55'0 0.0
2014-Sep-13 19:33N 44°25' E 008°55'0 0.0
2014-Sep-13 18:34N 44°25' E 008°55'0 0.0
2014-Sep-13 17:33N 44°25' E 008°55'0 0.0
2014-Sep-13 16:34N 44°25' E 008°55'0 0.0
2014-Sep-13 15:34N 44°25' E 008°55'0 0.0
2014-Sep-13 14:34N 44°25' E 008°55'0 0.0
2014-Sep-13 13:33N 44°25' E 008°55'0 0.0
2014-Sep-13 12:34N 44°25' E 008°55'0 0.0
2014-Sep-13 11:33N 44°25' E 008°55'0 0.0
2014-Sep-13 10:34N 44°25' E 008°55'0 0.0
2014-Sep-13 09:33N 44°25' E 008°55'0 0.0
2014-Sep-13 08:34N 44°25' E 008°55'0 0.0
2014-Sep-13 07:33N 44°25' E 008°55'0 0.0
2014-Sep-13 06:34N 44°25' E 008°55'0 0.0
2014-Sep-13 05:34N 44°25' E 008°55'0 0.0
2014-Sep-13 04:34N 44°25' E 008°55'0 0.0
2014-Sep-13 03:33N 44°25' E 008°55'0 0.0
2014-Sep-13 02:33N 44°25' E 008°55'0 0.0
2014-Sep-13 01:33N 44°25' E 008°55'0 0.0
2014-Sep-13 00:33N 44°25' E 008°55'0 0.0
2014-Sep-12 23:34N 44°25' E 008°55'0 0.0
2014-Sep-12 22:33N 44°25' E 008°55'0 0.0
2014-Sep-12 21:33N 44°25' E 008°55'0 0.0
2014-Sep-12 20:33N 44°25' E 008°55'0 0.0
2014-Sep-12 19:33N 44°25' E 008°55'0 0.0
2014-Sep-12 18:33N 44°25' E 008°55'0 0.0
2014-Sep-12 17:33N 44°25' E 008°55'0 0.0
2014-Sep-12 16:34N 44°25' E 008°55'0 0.0
2014-Sep-12 15:33N 44°25' E 008°55'0 0.0
2014-Sep-12 14:33N 44°25' E 008°55'0 0.0
2014-Sep-12 13:34N 44°25' E 008°55'0 0.0
2014-Sep-12 12:33N 44°25' E 008°55'0 0.0
2014-Sep-12 11:32N 44°25' E 008°55'0 0.0
2014-Sep-12 10:32N 44°25' E 008°55'0 0.0
2014-Sep-12 09:32N 44°25' E 008°55'0 0.0
2014-Sep-12 08:33N 44°25' E 008°55'0 0.0
2014-Sep-12 07:33N 44°25' E 008°55'0 0.0
2014-Sep-12 06:33N 44°25' E 008°55'0 0.0
2014-Sep-12 05:33N 44°25' E 008°55'0 0.0
2014-Sep-12 04:33N 44°25' E 008°55'0 0.0
2014-Sep-12 03:33N 44°25' E 008°55'0 0.0
2014-Sep-12 02:33N 44°25' E 008°55'0 0.0
2014-Sep-12 01:33N 44°25' E 008°55'0 0.0
2014-Sep-12 00:33N 44°25' E 008°55'0 0.0
2014-Sep-11 23:33N 44°25' E 008°55'0 0.0
2014-Sep-11 22:33N 44°25' E 008°55'0 0.0
2014-Sep-11 21:33N 44°25' E 008°55'0 0.0
2014-Sep-11 20:33N 44°25' E 008°55'0 0.0
2014-Sep-11 19:33N 44°25' E 008°55'0 0.0
2014-Sep-11 18:33N 44°25' E 008°55'0 0.0
2014-Sep-11 17:33N 44°25' E 008°55'0 0.0
2014-Sep-11 16:33N 44°25' E 008°55'0 0.0
2014-Sep-11 15:33N 44°25' E 008°55'0 0.0
2014-Sep-11 14:33N 44°25' E 008°55'0 0.0
2014-Sep-11 13:33N 44°25' E 008°55'0 0.0
2014-Sep-11 12:33N 44°25' E 008°55'0 0.0
2014-Sep-11 11:33N 44°25' E 008°55'0 0.0
2014-Sep-11 10:33N 44°25' E 008°55'0 0.0
2014-Sep-11 09:33N 44°25' E 008°55'0 0.0
2014-Sep-11 08:33N 44°25' E 008°55'0 0.0
2014-Sep-11 07:33N 44°25' E 008°55'0 0.0
2014-Sep-11 06:33N 44°25' E 008°55'0 0.0
2014-Sep-11 01:32N 44°25' E 008°55'0 0.0
2014-Sep-11 00:33N 44°25' E 008°55'0 0.0
2014-Sep-10 23:32N 44°25' E 008°55'0 0.0
2014-Sep-10 22:33N 44°25' E 008°55'0 0.0
2014-Sep-10 21:33N 44°25' E 008°55'0 0.0
2014-Sep-10 20:33N 44°25' E 008°55'0 0.0
2014-Sep-10 19:33N 44°25' E 008°55'0 0.0
2014-Sep-10 18:33N 44°25' E 008°55'0 0.0
2014-Sep-10 17:33N 44°25' E 008°55'0 0.0
2014-Sep-10 16:33N 44°25' E 008°55'0 0.0
2014-Sep-10 15:33N 44°25' E 008°55'0 0.0
2014-Sep-10 14:33N 44°25' E 008°55'0 0.0
2014-Sep-10 13:33N 44°25' E 008°55'0 0.0
2014-Sep-10 12:33N 44°25' E 008°55'0 0.0
2014-Sep-10 11:33N 44°25' E 008°55'0 0.0
2014-Sep-10 10:33N 44°25' E 008°55'0 0.0
2014-Sep-10 09:33N 44°25' E 008°55'0 0.0
2014-Sep-10 08:33N 44°25' E 008°55'0 0.0
2014-Sep-10 07:33N 44°25' E 008°55'0 0.0
2014-Sep-10 06:33N 44°25' E 008°55'0 0.0
2014-Sep-10 05:33N 44°25' E 008°55'0 0.0
2014-Sep-10 04:33N 44°25' E 008°55'0 0.0
2014-Sep-10 03:33N 44°25' E 008°55'0 0.0
2014-Sep-10 02:33N 44°25' E 008°55'0 0.0
2014-Sep-10 01:33N 44°25' E 008°55'0 0.0
2014-Sep-10 00:33N 44°25' E 008°55'0 0.0
2014-Sep-09 23:33N 44°25' E 008°55'0 0.0
2014-Sep-09 22:33N 44°25' E 008°55'0 0.0
2014-Sep-09 21:33N 44°25' E 008°55'0 0.0
2014-Sep-09 20:33N 44°25' E 008°55'0 0.0
2014-Sep-09 19:33N 44°25' E 008°55'0 0.0
2014-Sep-09 18:33N 44°25' E 008°55'0 0.0
2014-Sep-09 17:33N 44°25' E 008°55'0 0.0
2014-Sep-09 16:33N 44°25' E 008°55'0 0.0
2014-Sep-09 15:33N 44°25' E 008°55'0 0.0
2014-Sep-09 14:33N 44°25' E 008°55'0 0.0
2014-Sep-09 13:33N 44°25' E 008°55'0 0.0
2014-Sep-09 12:33N 44°25' E 008°55'0 0.0
2014-Sep-09 11:33N 44°25' E 008°55'0 0.0
2014-Sep-09 10:33N 44°25' E 008°55'0 0.0
2014-Sep-09 09:33N 44°25' E 008°55'0 0.0
2014-Sep-09 08:33N 44°25' E 008°55'0 0.0
2014-Sep-09 07:33N 44°25' E 008°55'0 0.0
2014-Sep-09 06:32N 44°25' E 008°55'  
Track history (hours):
 
Tides and Currents Weather Stations Pressure Air Temp Water Temp Dewpoint Dewpoint Depression Visibility Wind Speed Wind Dir Waves Ship Positions

Bonassola

Last reported at 2014-Sep-19 06:06 UTC. Time now 2014-Sep-23 18:29 UTC.
Position N 44°25' E 008°55'.

Length 60 m; draft 4 m.

Type: Pollution control. MMSI: 247159000.

Date/timePositionNaut miles runAvg speedWind from/ knotsBaromVisibWave heightAir tempDewpointWater temp
2014-Sep-19 06:06N 44°25' E 008°55'0 0.0
2014-Sep-19 05:33N 44°25' E 008°55'0 0.0
2014-Sep-18 15:04N 44°25' E 008°55'0 0.0
2014-Sep-18 14:33N 44°25' E 008°55'0 0.0
2014-Sep-18 13:33N 44°25' E 008°55'0 0.0
2014-Sep-18 12:33N 44°25' E 008°55'0 0.0
2014-Sep-18 11:33N 44°25' E 008°55'0 0.0
2014-Sep-18 10:33N 44°25' E 008°55'0 0.0
2014-Sep-18 09:33N 44°25' E 008°55'2 2.3
2014-Sep-18 08:33N 44°23' E 008°57'9 8.8
2014-Sep-18 07:33N 44°16' E 009°05'8 8.1
2014-Sep-18 06:33N 44°09' E 009°11'8 8.1
2014-Sep-18 05:33N 44°03' E 009°19'8 8.2
2014-Sep-18 04:33N 43°57' E 009°26'9 8.7
2014-Sep-18 03:33N 43°51' E 009°34'9 9.0
2014-Sep-18 02:33N 43°44' E 009°42'9 9.0
2014-Sep-18 01:33N 43°37' E 009°50'9 8.7
2014-Sep-18 00:33N 43°30' E 009°57'9 8.7
2014-Sep-17 23:33N 43°22' E 010°04'8 8.5
2014-Sep-17 22:33N 43°15' E 010°08'9 8.5
2014-Sep-17 21:33N 43°07' E 010°12'9 8.4
2014-Sep-17 20:28N 42°58' E 010°17'8 8.6
2014-Sep-17 19:33N 42°51' E 010°20'2 0.4
2014-Sep-17 14:33N 42°49' E 010°20'3 0.9
2014-Sep-17 11:26N 42°51' E 010°17'6 4.9
2014-Sep-17 10:15N 42°52' E 010°09'2 1.5
2014-Sep-17 09:10N 42°53' E 010°08'3 5.3
2014-Sep-17 08:32N 42°55' E 010°12'8 2.6
2014-Sep-17 05:25N 42°49' E 010°20'0 0.0
2014-Sep-17 04:28N 42°49' E 010°20'0 0.0
2014-Sep-17 03:07N 42°49' E 010°20'0 0.0
2014-Sep-17 01:33N 42°49' E 010°20'0 0.0
2014-Sep-17 00:32N 42°49' E 010°20'0 0.0
2014-Sep-16 12:06N 42°49' E 010°20'1 1.3
2014-Sep-16 11:33N 42°49' E 010°20'21 6.3
2014-Sep-16 08:15N 43°08' E 010°11'5 6.8
2014-Sep-16 07:33N 43°13' E 010°08'7 7.2
2014-Sep-16 06:33N 43°19' E 010°05'8 7.8
2014-Sep-16 05:33N 43°27' E 010°02'8 7.7
2014-Sep-16 04:33N 43°33' E 009°56'8 8.3
2014-Sep-16 03:33N 43°39' E 009°48'8 8.4
2014-Sep-16 02:33N 43°45' E 009°40'8 8.0
2014-Sep-16 01:33N 43°51' E 009°33'8 7.7
2014-Sep-16 00:33N 43°57' E 009°26'8 7.8
2014-Sep-15 23:33N 44°03' E 009°18'8 7.9
2014-Sep-15 22:33N 44°09' E 009°11'8 8.1
2014-Sep-15 21:33N 44°15' E 009°04'8 7.8
2014-Sep-15 20:33N 44°21' E 008°57'4 3.7
2014-Sep-15 19:33N 44°25' E 008°55'0 0.0
2014-Sep-15 18:33N 44°25' E 008°55'0 0.0
2014-Sep-15 17:33N 44°25' E 008°55'0 0.0
2014-Sep-15 16:33N 44°25' E 008°55'0 0.0
2014-Sep-15 15:32N 44°25' E 008°55'0 0.0
2014-Sep-15 14:33N 44°25' E 008°55'0 0.0
2014-Sep-15 13:33N 44°25' E 008°55'0 0.0
2014-Sep-15 12:34N 44°25' E 008°55'0 0.0
2014-Sep-15 11:33N 44°25' E 008°55'0 0.0
2014-Sep-15 10:33N 44°25' E 008°55'0 0.0
2014-Sep-15 09:32N 44°25' E 008°55'0 0.0
2014-Sep-15 08:34N 44°25' E 008°55'0 0.0
2014-Sep-15 07:34N 44°25' E 008°55'0 0.0
2014-Sep-15 06:33N 44°25' E 008°55'0 0.0
2014-Sep-15 05:31N 44°25' E 008°55'0 0.0
2014-Sep-15 04:34N 44°25' E 008°55'0 0.0
2014-Sep-15 03:34N 44°25' E 008°55'0 0.0
2014-Sep-15 02:34N 44°25' E 008°55'0 0.0
2014-Sep-15 01:33N 44°25' E 008°55'0 0.0
2014-Sep-15 00:33N 44°25' E 008°55'0 0.0
2014-Sep-14 23:34N 44°25' E 008°55'0 0.0
2014-Sep-14 22:32N 44°25' E 008°55'0 0.0
2014-Sep-14 21:33N 44°25' E 008°55'0 0.0
2014-Sep-14 20:33N 44°25' E 008°55'0 0.0
2014-Sep-14 19:33N 44°25' E 008°55'0 0.0
2014-Sep-14 18:34N 44°25' E 008°55'0 0.0
2014-Sep-14 17:34N 44°25' E 008°55'0 0.0
2014-Sep-14 16:33N 44°25' E 008°55'0 0.0
2014-Sep-14 15:33N 44°25' E 008°55'0 0.0
2014-Sep-14 14:33N 44°25' E 008°55'0 0.0
2014-Sep-14 13:34N 44°25' E 008°55'0 0.0
2014-Sep-14 12:33N 44°25' E 008°55'0 0.0
2014-Sep-14 11:33N 44°25' E 008°55'0 0.0
2014-Sep-14 10:34N 44°25' E 008°55'0 0.0
2014-Sep-14 09:34N 44°25' E 008°55'0 0.0
2014-Sep-14 08:33N 44°25' E 008°55'0 0.0
2014-Sep-14 07:33N 44°25' E 008°55'0 0.0
2014-Sep-14 06:34N 44°25' E 008°55'0 0.0
2014-Sep-14 05:34N 44°25' E 008°55'0 0.0
2014-Sep-14 04:33N 44°25' E 008°55'0 0.0
2014-Sep-14 03:33N 44°25' E 008°55'0 0.0
2014-Sep-14 02:33N 44°25' E 008°55'0 0.0
2014-Sep-14 01:33N 44°25' E 008°55'0 0.0
2014-Sep-13 21:34N 44°25' E 008°55'0 0.0
2014-Sep-13 20:34N 44°25' E 008°55'0 0.0
2014-Sep-13 19:33N 44°25' E 008°55'0 0.0
2014-Sep-13 18:34N 44°25' E 008°55'0 0.0
2014-Sep-13 17:33N 44°25' E 008°55'0 0.0
2014-Sep-13 16:34N 44°25' E 008°55'0 0.0
2014-Sep-13 15:34N 44°25' E 008°55'0 0.0
2014-Sep-13 14:34N 44°25' E 008°55'0 0.0
2014-Sep-13 13:33N 44°25' E 008°55'0 0.0
2014-Sep-13 12:34N 44°25' E 008°55'0 0.0
2014-Sep-13 11:33N 44°25' E 008°55'0 0.0
2014-Sep-13 10:34N 44°25' E 008°55'0 0.0
2014-Sep-13 09:33N 44°25' E 008°55'0 0.0
2014-Sep-13 08:34N 44°25' E 008°55'0 0.0
2014-Sep-13 07:33N 44°25' E 008°55'0 0.0
2014-Sep-13 06:34N 44°25' E 008°55'0 0.0
2014-Sep-13 05:34N 44°25' E 008°55'0 0.0
2014-Sep-13 04:34N 44°25' E 008°55'0 0.0
2014-Sep-13 03:33N 44°25' E 008°55'0 0.0
2014-Sep-13 02:33N 44°25' E 008°55'0 0.0
2014-Sep-13 01:33N 44°25' E 008°55'0 0.0
2014-Sep-13 00:33N 44°25' E 008°55'0 0.0
2014-Sep-12 23:34N 44°25' E 008°55'0 0.0
2014-Sep-12 22:33N 44°25' E 008°55'0 0.0
2014-Sep-12 21:33N 44°25' E 008°55'0 0.0
2014-Sep-12 20:33N 44°25' E 008°55'0 0.0
2014-Sep-12 19:33N 44°25' E 008°55'0 0.0
2014-Sep-12 18:33N 44°25' E 008°55'0 0.0
2014-Sep-12 17:33N 44°25' E 008°55'0 0.0
2014-Sep-12 16:34N 44°25' E 008°55'0 0.0
2014-Sep-12 15:33N 44°25' E 008°55'0 0.0
2014-Sep-12 14:33N 44°25' E 008°55'0 0.0
2014-Sep-12 13:34N 44°25' E 008°55'0 0.0
2014-Sep-12 12:33N 44°25' E 008°55'0 0.0
2014-Sep-12 11:32N 44°25' E 008°55'0 0.0
2014-Sep-12 10:32N 44°25' E 008°55'0 0.0
2014-Sep-12 09:32N 44°25' E 008°55'0 0.0
2014-Sep-12 08:33N 44°25' E 008°55'0 0.0
2014-Sep-12 07:33N 44°25' E 008°55'0 0.0
2014-Sep-12 06:33N 44°25' E 008°55'0 0.0
2014-Sep-12 05:33N 44°25' E 008°55'0 0.0
2014-Sep-12 04:33N 44°25' E 008°55'0 0.0
2014-Sep-12 03:33N 44°25' E 008°55'0 0.0
2014-Sep-12 02:33N 44°25' E 008°55'0 0.0
2014-Sep-12 01:33N 44°25' E 008°55'0 0.0
2014-Sep-12 00:33N 44°25' E 008°55'0 0.0
2014-Sep-11 23:33N 44°25' E 008°55'0 0.0
2014-Sep-11 22:33N 44°25' E 008°55'0 0.0
2014-Sep-11 21:33N 44°25' E 008°55'0 0.0
2014-Sep-11 20:33N 44°25' E 008°55'0 0.0
2014-Sep-11 19:33N 44°25' E 008°55'0 0.0
2014-Sep-11 18:33N 44°25' E 008°55'0 0.0
2014-Sep-11 17:33N 44°25' E 008°55'0 0.0
2014-Sep-11 16:33N 44°25' E 008°55'0 0.0
2014-Sep-11 15:33N 44°25' E 008°55'0 0.0
2014-Sep-11 14:33N 44°25' E 008°55'0 0.0
2014-Sep-11 13:33N 44°25' E 008°55'0 0.0
2014-Sep-11 12:33N 44°25' E 008°55'0 0.0
2014-Sep-11 11:33N 44°25' E 008°55'0 0.0
2014-Sep-11 10:33N 44°25' E 008°55'0 0.0
2014-Sep-11 09:33N 44°25' E 008°55'0 0.0
2014-Sep-11 08:33N 44°25' E 008°55'0 0.0
2014-Sep-11 07:33N 44°25' E 008°55'0 0.0
2014-Sep-11 06:33N 44°25' E 008°55'0 0.0
2014-Sep-11 01:32N 44°25' E 008°55'0 0.0
2014-Sep-11 00:33N 44°25' E 008°55'0 0.0
2014-Sep-10 23:32N 44°25' E 008°55'0 0.0
2014-Sep-10 22:33N 44°25' E 008°55'0 0.0
2014-Sep-10 21:33N 44°25' E 008°55'0 0.0
2014-Sep-10 20:33N 44°25' E 008°55'0 0.0
2014-Sep-10 19:33N 44°25' E 008°55'0 0.0
2014-Sep-10 18:33N 44°25' E 008°55'0 0.0
2014-Sep-10 17:33N 44°25' E 008°55'0 0.0
2014-Sep-10 16:33N 44°25' E 008°55'0 0.0
2014-Sep-10 15:33N 44°25' E 008°55'0 0.0
2014-Sep-10 14:33N 44°25' E 008°55'0 0.0
2014-Sep-10 13:33N 44°25' E 008°55'0 0.0
2014-Sep-10 12:33N 44°25' E 008°55'0 0.0
2014-Sep-10 11:33N 44°25' E 008°55'0 0.0
2014-Sep-10 10:33N 44°25' E 008°55'0 0.0
2014-Sep-10 09:33N 44°25' E 008°55'0 0.0
2014-Sep-10 08:33N 44°25' E 008°55'0 0.0
2014-Sep-10 07:33N 44°25' E 008°55'0 0.0
2014-Sep-10 06:33N 44°25' E 008°55'0 0.0
2014-Sep-10 05:33N 44°25' E 008°55'0 0.0
2014-Sep-10 04:33N 44°25' E 008°55'0 0.0
2014-Sep-10 03:33N 44°25' E 008°55'0 0.0
2014-Sep-10 02:33N 44°25' E 008°55'0 0.0
2014-Sep-10 01:33N 44°25' E 008°55'0 0.0
2014-Sep-10 00:33N 44°25' E 008°55'0 0.0
2014-Sep-09 23:33N 44°25' E 008°55'0 0.0
2014-Sep-09 22:33N 44°25' E 008°55'0 0.0
2014-Sep-09 21:33N 44°25' E 008°55'0 0.0
2014-Sep-09 20:33N 44°25' E 008°55'0 0.0
2014-Sep-09 19:33N 44°25' E 008°55'0 0.0
2014-Sep-09 18:33N 44°25' E 008°55'0 0.0
2014-Sep-09 17:33N 44°25' E 008°55'0 0.0
2014-Sep-09 16:33N 44°25' E 008°55'0 0.0
2014-Sep-09 15:33N 44°25' E 008°55'0 0.0
2014-Sep-09 14:33N 44°25' E 008°55'0 0.0
2014-Sep-09 13:33N 44°25' E 008°55'0 0.0
2014-Sep-09 12:33N 44°25' E 008°55'0 0.0
2014-Sep-09 11:33N 44°25' E 008°55'0 0.0
2014-Sep-09 10:33N 44°25' E 008°55'0 0.0
2014-Sep-09 09:33N 44°25' E 008°55'0 0.0
2014-Sep-09 08:33N 44°25' E 008°55'0 0.0
2014-Sep-09 07:33N 44°25' E 008°55'0 0.0
2014-Sep-09 06:32N 44°25' E 008°55'  

Dump ship's entire track history